Time;durP1;ratioP1;P1;durP2;ratioP2;P2;SDS_P1;SDS_P2;PMS_P1;PMS_P2;Temp;Humidity;BMP_temperature;BMP_pressure;BME280_temperature;BME280_humidity;BME280_pressure;Samples;Min_cycle;Max_cycle;Signal;HPM_P1;HPM_P2
2022/06/23 00:02:06;;;;;;;;;;;;;;;;;;4949009;28;19922;-88
2022/06/23 00:04:32;;;;;;;;;;;;;;;;;;4951231;28;19914;-88
2022/06/23 00:07:01;;;;;;;;;;;;;;;;;;4958602;28;19910;-88
2022/06/23 00:09:27;;;;;;;;;;;;;;;;;;4945740;28;20570;-88
2022/06/23 00:11:53;;;;;;;;;;;;;;;;;;4950605;28;19917;-85
2022/06/23 00:14:19;;;;;;;;;;;;;;;;;;4931052;28;19917;-87
2022/06/23 00:16:45;;;;;;;;;;;;;;;;;;4927619;28;20006;-88
2022/06/23 00:19:11;;;;;;;;;;;;;;;;;;4945092;28;19954;-87
2022/06/23 00:21:36;;;;;;;;;;;;;;;;;;4931539;28;19923;-87
2022/06/23 00:24:02;;;;;;;;;;;;;;;;;;4925938;29;20276;-88
2022/06/23 00:26:28;;;;;;;;;;;;;;;;;;4925716;29;19973;-88
2022/06/23 00:28:54;;;;;;;;;;;;;;;;;;4915198;29;19919;-88
2022/06/23 00:31:20;;;;;;;;;;;;;;;;;;4920103;29;19926;-88
2022/06/23 00:33:49;;;;;;;;;;;;;;;;;;4914702;29;19914;-87
2022/06/23 00:36:15;;;;;;;;;;;;;;;;;;4930126;29;19914;-88
2022/06/23 00:38:41;;;;;;;;;;;;;;;;;;4928402;29;19917;-88
2022/06/23 00:41:07;;;;;;;;;;;;;;;;;;4920493;29;19927;-88
2022/06/23 00:43:33;;;;;;;;;;;;;;;;;;4918462;29;19921;-88
2022/06/23 00:45:59;;;;;;;;;;;;;;;;;;4944862;29;19911;-88
2022/06/23 00:48:25;;;;;;;;;;;;;;;;;;4930119;29;19919;-88
2022/06/23 00:50:51;;;;;;;;;;;;;;;;;;4929785;29;20252;-88
2022/06/23 00:53:17;;;;;;;;;;;;;;;;;;4920258;29;19919;-88
2022/06/23 00:55:43;;;;;;;;;;;;;;;;;;4924172;29;19910;-88
2022/06/23 00:58:09;;;;;;;;;;;;;;;;;;4923193;29;19965;-88
2022/06/23 01:00:35;;;;;;;;;;;;;;;;;;4917100;29;19915;-88
2022/06/23 01:03:01;;;;;;;;;;;;;;;;;;4941915;28;19922;-87
2022/06/23 01:05:26;;;;;;;;;;;;;;;;;;4943096;29;19917;-88
2022/06/23 01:07:59;;;;;;;;;;;;;;;;;;4929559;29;19915;-88
2022/06/23 01:10:25;;;;;;;;;;;;;;;;;;4939756;29;19954;-87
2022/06/23 01:12:51;;;;;;;;;;;;;;;;;;4939340;29;19918;-88
2022/06/23 01:15:17;;;;;;;;;;;;;;;;;;4930658;29;19910;-88
2022/06/23 01:17:43;;;;;;;;;;;;;;;;;;4932000;29;19922;-86
2022/06/23 01:20:09;;;;;;;;;;;;;;;;;;4917497;28;19915;-88
2022/06/23 01:22:35;;;;;;;;;;;;;;;;;;4949179;28;20218;-88
2022/06/23 01:25:02;;;;;;;;;;;;;;;;;;4932257;29;19915;-88
2022/06/23 01:27:28;;;;;;;;;;;;;;;;;;4962701;28;19910;-88
2022/06/23 01:29:54;;;;;;;;;;;;;;;;;;4958792;28;20403;-88
2022/06/23 01:32:20;;;;;;;;;;;;;;;;;;4933339;28;19914;-88
2022/06/23 01:34:46;;;;;;;;;;;;;;;;;;4931250;28;20477;-88
2022/06/23 01:37:12;;;;;;;;;;;;;;;;;;4958287;28;19989;-88
2022/06/23 01:39:37;;;;;;;;;;;;;;;;;;4946298;28;19999;-87
2022/06/23 01:42:03;;;;;;;;;;;;;;;;;;4958609;28;19937;-89
2022/06/23 01:44:29;;;;;;;;;;;;;;;;;;4956728;28;19910;-87
2022/06/23 01:46:55;;;;;;;;;;;;;;;;;;4946038;28;19911;-87
2022/06/23 01:49:21;;;;;;;;;;;;;;;;;;4931433;28;19961;-87
2022/06/23 01:51:47;;;;;;;;;;;;;;;;;;4947556;28;19925;-88
2022/06/23 01:54:13;;;;;;;;;;;;;;;;;;4961263;28;19918;-88
2022/06/23 01:56:39;;;;;;;;;;;;;;;;;;4944805;28;20001;-88
2022/06/23 01:59:05;;;;;;;;;;;;;;;;;;4960084;28;20323;-88
2022/06/23 02:01:31;;;;;;;;;;;;;;;;;;4953859;28;19922;-88
2022/06/23 02:03:57;;;;;;;;;;;;;;;;;;4943538;28;20367;-88
2022/06/23 02:06:22;;;;;;;;;;;;;;;;;;4944522;28;20385;-88
2022/06/23 02:08:48;;;;;;;;;;;;;;;;;;4953620;28;19914;-88
2022/06/23 02:11:15;;;;;;;;;;;;;;;;;;4938046;28;19921;-88
2022/06/23 02:13:40;;;;;;;;;;;;;;;;;;4938446;29;20020;-88
2022/06/23 02:16:07;;;;;;;;;;;;;;;;;;4952015;28;20059;-88
2022/06/23 02:18:33;;;;;;;;;;;;;;;;;;4934122;28;20374;-88
2022/06/23 02:20:59;;;;;;;;;;;;;;;;;;4949212;28;19966;-88
2022/06/23 02:23:25;;;;;;;;;;;;;;;;;;4916668;29;19918;-87
2022/06/23 02:25:58;;;;;;;;;;;;;;;;;;4918615;29;19931;-88
2022/06/23 02:28:24;;;;;;;;;;;;;;;;;;4929396;29;19970;-88
2022/06/23 02:30:50;;;;;;;;;;;;;;;;;;4916206;29;20014;-88
2022/06/23 02:33:15;;;;;;;;;;;;;;;;;;4914993;29;20040;-88
2022/06/23 02:35:41;;;;;;;;;;;;;;;;;;4913424;29;20537;-88
2022/06/23 02:38:08;;;;;;;;;;;;;;;;;;4928639;28;19919;-88
2022/06/23 02:40:34;;;;;;;;;;;;;;;;;;4927326;29;19919;-88
2022/06/23 02:43:00;;;;;;;;;;;;;;;;;;4925130;29;20295;-88
2022/06/23 02:45:26;;;;;;;;;;;;;;;;;;4942287;29;19914;-88
2022/06/23 02:47:52;;;;;;;;;;;;;;;;;;4928209;29;20427;-88
2022/06/23 02:50:18;;;;;;;;;;;;;;;;;;4916963;29;20004;-88
2022/06/23 02:52:44;;;;;;;;;;;;;;;;;;4941667;29;19966;-88
2022/06/23 02:55:10;;;;;;;;;;;;;;;;;;4912971;29;20398;-88
2022/06/23 02:57:36;;;;;;;;;;;;;;;;;;4925998;29;20429;-88
2022/06/23 03:00:02;;;;;;;;;;;;;;;;;;4927436;29;19958;-87
2022/06/23 03:02:28;;;;;;;;;;;;;;;;;;4925703;29;19919;-88
2022/06/23 03:04:56;;;;;;;;;;;;;;;;;;4932017;29;20275;-88
2022/06/23 03:07:22;;;;;;;;;;;;;;;;;;4927751;29;19907;-87
2022/06/23 03:09:47;;;;;;;;;;;;;;;;;;4941526;29;20271;-87
2022/06/23 03:12:13;;;;;;;;;;;;;;;;;;4914425;29;20730;-87
2022/06/23 03:14:39;;;;;;;;;;;;;;;;;;4913206;29;19981;-88
2022/06/23 03:17:05;;;;;;;;;;;;;;;;;;4915814;29;19918;-87
2022/06/23 03:19:31;;;;;;;;;;;;;;;;;;4939483;29;20570;-88
2022/06/23 03:21:57;;;;;;;;;;;;;;;;;;4945411;28;19918;-88
2022/06/23 03:24:23;;;;;;;;;;;;;;;;;;4923042;29;19950;-88
2022/06/23 03:26:49;;;;;;;;;;;;;;;;;;4941326;29;19957;-88
2022/06/23 03:29:15;;;;;;;;;;;;;;;;;;4914361;29;20396;-87
2022/06/23 03:31:41;;;;;;;;;;;;;;;;;;4906525;29;19907;-88
2022/06/23 03:34:07;;;;;;;;;;;;;;;;;;4937313;29;19957;-88
2022/06/23 03:36:33;;;;;;;;;;;;;;;;;;4937634;28;20533;-88
2022/06/23 03:41:43;;;;;;;;;;;;;;;;;;4927234;29;19966;-88
2022/06/23 03:44:09;;;;;;;;;;;;;;;;;;4924433;29;19911;-88
2022/06/23 03:46:36;;;;;;;;;;;;;;;;;;4920572;29;19918;-87
2022/06/23 03:49:01;;;;;;;;;;;;;;;;;;4923615;29;19918;-87
2022/06/23 03:51:28;;;;;;;;;;;;;;;;;;4925314;29;19910;-88
2022/06/23 03:53:55;;;;;;;;;;;;;;;;;;4906804;29;19950;-88
2022/06/23 03:56:21;;;;;;;;;;;;;;;;;;4924693;29;19911;-88
2022/06/23 03:58:47;;;;;;;;;;;;;;;;;;4912534;29;19910;-88
2022/06/23 04:01:16;;;;;;;;;;;;;;;;;;4913820;29;21087;-88
2022/06/23 04:03:42;;;;;;;;;;;;;;;;;;4944722;28;20294;-87
2022/06/23 04:06:08;;;;;;;;;;;;;;;;;;4927676;29;19914;-87
2022/06/23 04:08:34;;;;;;;;;;;;;;;;;;4914390;29;19918;-87
2022/06/23 04:11:43;;;;;;;;;;;;;;;;;;4942429;28;19930;-87
2022/06/23 04:13:46;;;;;;;;;;;;;;;;;;4921546;29;19994;-87
2022/06/23 04:16:12;;;;;;;;;;;;;;;;;;4942293;29;19974;-86
2022/06/23 04:18:38;;;;;;;;;;;;;;;;;;4924370;29;19915;-87
2022/06/23 04:21:10;;;;;;;;;;;;;;;;;;4965971;28;19926;-87
2022/06/23 04:23:36;;;;;;;;;;;;;;;;;;4950851;28;20559;-87
2022/06/23 04:26:02;;;;;;;;;;;;;;;;;;4966912;28;19923;-88
2022/06/23 04:28:28;;;;;;;;;;;;;;;;;;4951208;28;19914;-88
2022/06/23 04:30:54;;;;;;;;;;;;;;;;;;4935049;28;19915;-88
2022/06/23 04:33:20;;;;;;;;;;;;;;;;;;4935817;28;19911;-88
2022/06/23 04:35:45;;;;;;;;;;;;;;;;;;4948068;28;19911;-88
2022/06/23 04:38:11;;;;;;;;;;;;;;;;;;4946978;28;19921;-88
2022/06/23 04:40:37;;;;;;;;;;;;;;;;;;4932024;28;19919;-88
2022/06/23 04:43:03;;;;;;;;;;;;;;;;;;4946205;28;20327;-89
2022/06/23 04:45:29;;;;;;;;;;;;;;;;;;4940289;28;19969;-88
2022/06/23 04:47:55;;;;;;;;;;;;;;;;;;4946777;28;19937;-88
2022/06/23 04:50:21;;;;;;;;;;;;;;;;;;4930190;28;19911;-88
2022/06/23 04:52:47;;;;;;;;;;;;;;;;;;4958016;28;19940;-88
2022/06/23 04:55:13;;;;;;;;;;;;;;;;;;4959750;28;19911;-88
2022/06/23 04:57:38;;;;;;;;;;;;;;;;;;4935549;29;19921;-88
2022/06/23 05:00:06;;;;;;;;;;;;;;;;;;4943605;28;20220;-88
2022/06/23 05:02:31;;;;;;;;;;;;;;;;;;4958911;28;19929;-88
2022/06/23 05:04:57;;;;;;;;;;;;;;;;;;4947018;28;20282;-88
2022/06/23 05:07:23;;;;;;;;;;;;;;;;;;4957067;28;20370;-87
2022/06/23 05:09:49;;;;;;;;;;;;;;;;;;4931072;29;20410;-88
2022/06/23 05:12:15;;;;;;;;;;;;;;;;;;4965137;28;20004;-88
2022/06/23 05:14:41;;;;;;;;;;;;;;;;;;4932231;29;19910;-88
2022/06/23 05:17:07;;;;;;;;;;;;;;;;;;4947108;28;19911;-88
2022/06/23 05:19:33;;;;;;;;;;;;;;;;;;4937239;28;19907;-88
2022/06/23 05:21:59;;;;;;;;;;;;;;;;;;4961028;28;19919;-90
2022/06/23 05:24:25;;;;;;;;;;;;;;;;;;4944569;28;19910;-88
2022/06/23 05:26:51;;;;;;;;;;;;;;;;;;4958451;28;19918;-88
2022/06/23 05:29:17;;;;;;;;;;;;;;;;;;4959903;28;19918;-88
2022/06/23 05:31:43;;;;;;;;;;;;;;;;;;4958596;28;20282;-88
2022/06/23 05:34:09;;;;;;;;;;;;;;;;;;4960148;28;19918;-89
2022/06/23 05:36:35;;;;;;;;;;;;;;;;;;4960282;28;19918;-89
2022/06/23 05:39:01;;;;;;;;;;;;;;;;;;4928982;29;19941;-89
2022/06/23 05:41:27;;;;;;;;;;;;;;;;;;4943876;28;19914;-89
2022/06/23 05:43:54;;;;;;;;;;;;;;;;;;4949894;28;19911;-89
2022/06/23 05:46:20;;;;;;;;;;;;;;;;;;4964456;28;21391;-89
2022/06/23 05:48:47;;;;;;;;;;;;;;;;;;4964867;28;19918;-89
2022/06/23 05:51:12;;;;;;;;;;;;;;;;;;4947046;28;19918;-89
2022/06/23 05:53:38;;;;;;;;;;;;;;;;;;4937195;28;19914;-88
2022/06/23 05:56:04;;;;;;;;;;;;;;;;;;4962516;28;19919;-89
2022/06/23 05:58:31;;;;;;;;;;;;;;;;;;4946316;28;19984;-89
2022/06/23 06:00:56;;;;;;;;;;;;;;;;;;4962220;28;19917;-88
2022/06/23 06:03:22;;;;;;;;;;;;;;;;;;4931413;28;19926;-89
2022/06/23 06:05:48;;;;;;;;;;;;;;;;;;4962617;28;19910;-89
2022/06/23 06:08:14;;;;;;;;;;;;;;;;;;4964489;28;19972;-90
2022/06/23 06:10:40;;;;;;;;;;;;;;;;;;4964411;28;19989;-89
2022/06/23 06:13:06;;;;;;;;;;;;;;;;;;4951161;28;20013;-89
2022/06/23 06:15:32;;;;;;;;;;;;;;;;;;4964801;28;19918;-89
2022/06/23 06:17:58;;;;;;;;;;;;;;;;;;4949588;28;19914;-89
2022/06/23 06:20:24;;;;;;;;;;;;;;;;;;4938057;28;19933;-89
2022/06/23 06:22:50;;;;;;;;;;;;;;;;;;4939405;28;20014;-89
2022/06/23 06:25:15;;;;;;;;;;;;;;;;;;4945853;28;19914;-89
2022/06/23 06:27:41;;;;;;;;;;;;;;;;;;4938056;29;19910;-89
2022/06/23 06:30:07;;;;;;;;;;;;;;;;;;4951046;28;19914;-89
2022/06/23 06:32:33;;;;;;;;;;;;;;;;;;4939133;29;20025;-89
2022/06/23 06:34:59;;;;;;;;;;;;;;;;;;4942589;29;19917;-88
2022/06/23 06:37:25;;;;;;;;;;;;;;;;;;4945142;28;20417;-89
2022/06/23 06:39:51;;;;;;;;;;;;;;;;;;5517637;23;19976;-87
2022/06/23 06:42:17;;;;;;;;;;;;;;;;;;4980499;28;19917;-87
2022/06/23 06:44:43;;;;;;;;;;;;;;;;;;4982213;28;19960;-87
2022/06/23 06:47:09;;;;;;;;;;;;;;;;;;4997713;28;19913;-87
2022/06/23 06:49:35;;;;;;;;;;;;;;;;;;4981235;28;19920;-87
2022/06/23 06:52:01;;;;;;;;;;;;;;;;;;4977653;28;19917;-88
2022/06/23 06:54:27;;;;;;;;;;;;;;;;;;4999839;28;19914;-88
2022/06/23 06:56:53;;;;;;;;;;;;;;;;;;5002073;28;20084;-87
2022/06/23 06:59:19;;;;;;;;;;;;;;;;;;5001432;28;19968;-88
2022/06/23 07:01:45;;;;;;;;;;;;;;;;;;4993925;28;19917;-88
2022/06/23 07:04:10;;;;;;;;;;;;;;;;;;5002097;28;19909;-88
2022/06/23 07:06:36;;;;;;;;;;;;;;;;;;5002631;28;20016;-86
2022/06/23 07:09:03;;;;;;;;;;;;;;;;;;4995101;28;19960;-88
2022/06/23 07:11:29;;;;;;;;;;;;;;;;;;4989328;28;19987;-90
2022/06/23 07:13:54;;;;;;;;;;;;;;;;;;4985426;28;20439;-85
2022/06/23 07:16:20;;;;;;;;;;;;;;;;;;4989810;28;19921;-86
2022/06/23 07:18:46;;;;;;;;;;;;;;;;;;4985100;28;20437;-88
2022/06/23 07:21:12;;;;;;;;;;;;;;;;;;4985635;28;19917;-85
2022/06/23 07:23:38;;;;;;;;;;;;;;;;;;4976306;28;20616;-87
2022/06/23 07:26:04;;;;;;;;;;;;;;;;;;4995986;28;19918;-87
2022/06/23 07:28:30;;;;;;;;;;;;;;;;;;4994742;28;19917;-87
2022/06/23 07:30:56;;;;;;;;;;;;;;;;;;4990076;28;19928;-87
2022/06/23 07:33:22;;;;;;;;;;;;;;;;;;5002914;28;19936;-88
2022/06/23 07:35:48;;;;;;;;;;;;;;;;;;5000097;28;19955;-88
2022/06/23 07:38:14;;;;;;;;;;;;;;;;;;4995246;28;19921;-89
2022/06/23 07:40:40;;;;;;;;;;;;;;;;;;4973372;28;19918;-87
2022/06/23 07:43:05;;;;;;;;;;;;;;;;;;4978421;28;19949;-88
2022/06/23 07:45:31;;;;;;;;;;;;;;;;;;4962566;28;20418;-88
2022/06/23 07:47:57;;;;;;;;;;;;;;;;;;4965898;28;19964;-85
2022/06/23 07:50:23;;;;;;;;;;;;;;;;;;4979459;28;19913;-87
2022/06/23 07:52:49;;;;;;;;;;;;;;;;;;4966235;28;19909;-88
2022/06/23 07:55:15;;;;;;;;;;;;;;;;;;4980903;28;19956;-88
2022/06/23 07:57:41;;;;;;;;;;;;;;;;;;4979853;28;19918;-87
2022/06/23 08:00:07;;;;;;;;;;;;;;;;;;4965107;28;19961;-88
2022/06/23 08:02:33;;;;;;;;;;;;;;;;;;4969674;28;20016;-86
2022/06/23 08:04:59;;;;;;;;;;;;;;;;;;4978240;28;20051;-87
2022/06/23 08:07:25;;;;;;;;;;;;;;;;;;4980004;28;19944;-88
2022/06/23 08:09:50;;;;;;;;;;;;;;;;;;4978451;28;19920;-87
2022/06/23 08:17:46;;;;;;;;;;;;;;;;;;4985739;28;19992;-87
2022/06/23 08:20:12;;;;;;;;;;;;;;;;;;4968811;28;20389;-89
2022/06/23 08:22:39;;;;;;;;;;;;;;;;;;4997871;28;19918;-87
2022/06/23 08:25:06;;;;;;;;;;;;;;;;;;4964424;28;20396;-88
2022/06/23 08:27:32;;;;;;;;;;;;;;;;;;4965502;28;19921;-88
2022/06/23 08:29:57;;;;;;;;;;;;;;;;;;4981508;28;20963;-88
2022/06/23 08:32:23;;;;;;;;;;;;;;;;;;4967077;28;19913;-89
2022/06/23 08:34:49;;;;;;;;;;;;;;;;;;4983565;28;19960;-86
2022/06/23 08:37:15;;;;;;;;;;;;;;;;;;4965105;28;19921;-88
2022/06/23 08:39:41;;;;;;;;;;;;;;;;;;4966021;28;19954;-88
2022/06/23 08:42:09;;;;;;;;;;;;;;;;;;4960469;28;20242;-88
2022/06/23 08:44:35;;;;;;;;;;;;;;;;;;4976538;28;19957;-88
2022/06/23 08:47:04;;;;;;;;;;;;;;;;;;4977881;28;20316;-88
2022/06/23 08:49:29;;;;;;;;;;;;;;;;;;4982902;28;19917;-88
2022/06/23 08:51:55;;;;;;;;;;;;;;;;;;4981898;28;20254;-88
2022/06/23 08:54:21;;;;;;;;;;;;;;;;;;4983836;28;19917;-88
2022/06/23 08:56:47;;;;;;;;;;;;;;;;;;4973504;28;20427;-89
2022/06/23 08:59:13;;;;;;;;;;;;;;;;;;4983975;28;19909;-89
2022/06/23 09:01:40;;;;;;;;;;;;;;;;;;4965245;28;20287;-87
2022/06/23 09:04:06;;;;;;;;;;;;;;;;;;4967867;28;19984;-89
2022/06/23 09:06:31;;;;;;;;;;;;;;;;;;4985092;28;19918;-87
2022/06/23 09:08:57;;;;;;;;;;;;;;;;;;4968007;28;19918;-89
2022/06/23 09:11:23;;;;;;;;;;;;;;;;;;4969801;28;19910;-88
2022/06/23 09:13:49;;;;;;;;;;;;;;;;;;4980466;28;20385;-89
2022/06/23 09:16:16;;;;;;;;;;;;;;;;;;4981766;28;19910;-87
2022/06/23 09:18:41;;;;;;;;;;;;;;;;;;4960480;28;20035;-87
2022/06/23 09:21:07;;;;;;;;;;;;;;;;;;4974652;28;21198;-87
2022/06/23 09:23:33;;;;;;;;;;;;;;;;;;4975413;28;19996;-88
2022/06/23 09:25:59;;;;;;;;;;;;;;;;;;4980729;28;19920;-87
2022/06/23 09:28:25;;;;;;;;;;;;;;;;;;4996587;28;19972;-87
2022/06/23 09:30:51;;;;;;;;;;;;;;;;;;4965179;28;19936;-87
2022/06/23 09:33:17;;;;;;;;;;;;;;;;;;4979982;28;19910;-87
2022/06/23 09:35:44;;;;;;;;;;;;;;;;;;4981220;28;19913;-87
2022/06/23 09:38:10;;;;;;;;;;;;;;;;;;4978300;28;20287;-87
2022/06/23 09:40:36;;;;;;;;;;;;;;;;;;4966437;28;20229;-86
2022/06/23 09:43:01;;;;;;;;;;;;;;;;;;4962284;28;19917;-90
2022/06/23 09:45:28;;;;;;;;;;;;;;;;;;4963290;28;19960;-89
2022/06/23 09:47:54;;;;;;;;;;;;;;;;;;4956002;28;19917;-88
2022/06/23 09:50:20;;;;;;;;;;;;;;;;;;4959980;28;19913;-88
2022/06/23 09:52:45;;;;;;;;;;;;;;;;;;4958387;28;20675;-89
2022/06/23 09:55:11;;;;;;;;;;;;;;;;;;4961449;28;19916;-89
2022/06/23 09:57:37;;;;;;;;;;;;;;;;;;4959552;28;20350;-89
2022/06/23 10:00:03;;;;;;;;;;;;;;;;;;4976796;28;19921;-88
2022/06/23 10:02:29;;;;;;;;;;;;;;;;;;4962357;28;20335;-89
2022/06/23 10:04:55;;;;;;;;;;;;;;;;;;4960226;28;20017;-87
2022/06/23 10:07:21;;;;;;;;;;;;;;;;;;4960222;28;19941;-88
2022/06/23 10:09:47;;;;;;;;;;;;;;;;;;4964067;28;19910;-88
2022/06/23 10:12:19;;;;;;;;;;;;;;;;;;4962983;28;20152;-88
2022/06/23 10:14:45;;;;;;;;;;;;;;;;;;4961162;28;20318;-88
2022/06/23 10:17:13;;;;;;;;;;;;;;;;;;4962232;28;20013;-90
2022/06/23 10:19:38;;;;;;;;;;;;;;;;;;4965236;28;20289;-89
2022/06/23 10:22:04;;;;;;;;;;;;;;;;;;4957345;28;19920;-89
2022/06/23 10:24:30;;;;;;;;;;;;;;;;;;4962745;28;19914;-88
2022/06/23 10:26:56;;;;;;;;;;;;;;;;;;4964072;28;19961;-88
2022/06/23 10:29:22;;;;;;;;;;;;;;;;;;4968622;28;20524;-89
2022/06/23 10:31:48;;;;;;;;;;;;;;;;;;4966427;28;19994;-89
2022/06/23 10:34:14;;;;;;;;;;;;;;;;;;4962357;28;19910;-90
2022/06/23 10:36:40;;;;;;;;;;;;;;;;;;4955931;28;19910;-88
2022/06/23 10:39:06;;;;;;;;;;;;;;;;;;4982714;28;19952;-88
2022/06/23 10:41:32;;;;;;;;;;;;;;;;;;4981833;28;19917;-87
2022/06/23 10:43:58;;;;;;;;;;;;;;;;;;4970541;28;19913;-87
2022/06/23 10:46:24;;;;;;;;;;;;;;;;;;4977846;28;20003;-87
2022/06/23 10:48:50;;;;;;;;;;;;;;;;;;4980020;28;19913;-87
2022/06/23 10:51:15;;;;;;;;;;;;;;;;;;4963442;28;20040;-87
2022/06/23 10:53:41;;;;;;;;;;;;;;;;;;4963145;28;19981;-87
2022/06/23 10:56:07;;;;;;;;;;;;;;;;;;4961187;28;19969;-87
2022/06/23 10:58:33;;;;;;;;;;;;;;;;;;4981874;28;20396;-87
2022/06/23 11:00:59;;;;;;;;;;;;;;;;;;4978088;28;19934;-87
2022/06/23 11:03:25;;;;;;;;;;;;;;;;;;4981403;28;20288;-87
2022/06/23 11:05:51;;;;;;;;;;;;;;;;;;4980226;28;19918;-88
2022/06/23 11:08:17;;;;;;;;;;;;;;;;;;4967515;28;20392;-87
2022/06/23 11:10:43;;;;;;;;;;;;;;;;;;4964073;28;20284;-88
2022/06/23 11:13:09;;;;;;;;;;;;;;;;;;4985932;28;20410;-87
2022/06/23 11:15:35;;;;;;;;;;;;;;;;;;4965009;28;20012;-88
2022/06/23 11:18:01;;;;;;;;;;;;;;;;;;4965419;28;20425;-87
2022/06/23 11:20:27;;;;;;;;;;;;;;;;;;4962230;28;19995;-87
2022/06/23 11:22:53;;;;;;;;;;;;;;;;;;4962135;28;20463;-87
2022/06/23 11:25:21;;;;;;;;;;;;;;;;;;4962926;28;19922;-87
2022/06/23 11:27:47;;;;;;;;;;;;;;;;;;4968479;28;19914;-87
2022/06/23 11:30:13;;;;;;;;;;;;;;;;;;4966004;28;19950;-88
2022/06/23 11:32:40;;;;;;;;;;;;;;;;;;4961890;28;19961;-88
2022/06/23 11:35:06;;;;;;;;;;;;;;;;;;4959610;28;20149;-88
2022/06/23 11:37:32;;;;;;;;;;;;;;;;;;4958790;28;20419;-88
2022/06/23 11:39:57;;;;;;;;;;;;;;;;;;4960770;28;19920;-88
2022/06/23 11:42:23;;;;;;;;;;;;;;;;;;4962667;28;19918;-89
2022/06/23 11:44:49;;;;;;;;;;;;;;;;;;4967465;28;19996;-89
2022/06/23 11:47:15;;;;;;;;;;;;;;;;;;4985545;28;19992;-89
2022/06/23 11:49:41;;;;;;;;;;;;;;;;;;4974497;28;19918;-89
2022/06/23 11:52:07;;;;;;;;;;;;;;;;;;4963004;28;19920;-89
2022/06/23 11:54:34;;;;;;;;;;;;;;;;;;4970738;28;20357;-90
2022/06/23 11:57:00;;;;;;;;;;;;;;;;;;4966050;28;20138;-91
2022/06/23 11:59:26;;;;;;;;;;;;;;;;;;4970584;28;19910;-91
2022/06/23 12:01:52;;;;;;;;;;;;;;;;;;4968743;28;19917;-90
2022/06/23 12:04:18;;;;;;;;;;;;;;;;;;4981634;28;19913;-89
2022/06/23 12:06:44;;;;;;;;;;;;;;;;;;4968431;28;19936;-90
2022/06/23 12:09:10;;;;;;;;;;;;;;;;;;4986167;28;19909;-91
2022/06/23 12:11:36;;;;;;;;;;;;;;;;;;4970903;28;19910;-90
2022/06/23 12:14:02;;;;;;;;;;;;;;;;;;4969535;28;19968;-91
2022/06/23 12:16:28;;;;;;;;;;;;;;;;;;4967110;28;19906;-90
2022/06/23 12:18:53;;;;;;;;;;;;;;;;;;4966353;28;19917;-90
2022/06/23 12:21:21;;;;;;;;;;;;;;;;;;4982006;28;19917;-90
2022/06/23 12:23:47;;;;;;;;;;;;;;;;;;4984716;28;20016;-91
2022/06/23 12:26:13;;;;;;;;;;;;;;;;;;4968977;28;19913;-88
2022/06/23 12:28:39;;;;;;;;;;;;;;;;;;4970446;28;19921;-91
2022/06/23 12:31:05;;;;;;;;;;;;;;;;;;4982622;28;19916;-91
2022/06/23 12:33:31;;;;;;;;;;;;;;;;;;4969577;28;19909;-91
2022/06/23 12:35:57;;;;;;;;;;;;;;;;;;4982349;28;19940;-92
2022/06/23 12:38:23;;;;;;;;;;;;;;;;;;4962842;28;19922;-90
2022/06/23 12:40:49;;;;;;;;;;;;;;;;;;4972616;28;19921;-91
2022/06/23 12:43:15;;;;;;;;;;;;;;;;;;4964243;28;20349;-90
2022/06/23 12:45:41;;;;;;;;;;;;;;;;;;4963402;28;19933;-88
2022/06/23 12:48:07;;;;;;;;;;;;;;;;;;4966898;28;19916;-92
2022/06/23 12:50:33;;;;;;;;;;;;;;;;;;4964590;28;19922;-91
2022/06/23 12:52:58;;;;;;;;;;;;;;;;;;4961809;28;20257;-90
2022/06/23 12:55:24;;;;;;;;;;;;;;;;;;4964715;28;19932;-92
2022/06/23 12:57:50;;;;;;;;;;;;;;;;;;4958483;28;19953;-91
2022/06/23 13:00:16;;;;;;;;;;;;;;;;;;4966831;28;19964;-90
2022/06/23 13:02:43;;;;;;;;;;;;;;;;;;4963863;28;19961;-89
2022/06/23 13:05:09;;;;;;;;;;;;;;;;;;4976963;28;19918;-91
2022/06/23 13:07:35;;;;;;;;;;;;;;;;;;4963445;28;19914;-93
2022/06/23 13:10:01;;;;;;;;;;;;;;;;;;4962706;28;20012;-93
2022/06/23 13:12:27;;;;;;;;;;;;;;;;;;4964266;28;19913;-85
2022/06/23 13:14:53;;;;;;;;;;;;;;;;;;4956020;28;19917;-86
2022/06/23 13:17:23;;;;;;;;;;;;;;;;;;4959890;28;19909;-85
2022/06/23 13:19:50;;;;;;;;;;;;;;;;;;4974100;28;20750;-84
2022/06/23 13:22:16;;;;;;;;;;;;;;;;;;4965222;28;19914;-85
2022/06/23 13:24:42;;;;;;;;;;;;;;;;;;4963851;28;19941;-85
2022/06/23 13:27:08;;;;;;;;;;;;;;;;;;4980217;28;19996;-86
2022/06/23 13:29:34;;;;;;;;;;;;;;;;;;4961041;28;20606;-85
2022/06/23 13:32:00;;;;;;;;;;;;;;;;;;4962947;28;19909;-84
2022/06/23 13:34:29;;;;;;;;;;;;;;;;;;4962033;28;19925;-85
2022/06/23 13:36:55;;;;;;;;;;;;;;;;;;4964372;28;19972;-85
2022/06/23 13:39:21;;;;;;;;;;;;;;;;;;4960561;28;20450;-85
2022/06/23 13:41:47;;;;;;;;;;;;;;;;;;4951357;28;20021;-85
2022/06/23 13:44:13;;;;;;;;;;;;;;;;;;4937803;28;20656;-86
2022/06/23 13:46:39;;;;;;;;;;;;;;;;;;4940372;28;19914;-85
2022/06/23 13:49:05;;;;;;;;;;;;;;;;;;4960660;28;19920;-86
2022/06/23 13:51:41;;;;;;;;;;;;;;;;;;4936660;28;19914;-86
2022/06/23 13:54:06;;;;;;;;;;;;;;;;;;4945697;28;19910;-86
2022/06/23 13:56:34;;;;;;;;;;;;;;;;;;4956309;28;19925;-89
2022/06/23 13:59:00;;;;;;;;;;;;;;;;;;4945005;28;19914;-89
2022/06/23 14:01:26;;;;;;;;;;;;;;;;;;4942081;28;19910;-91
2022/06/23 14:03:52;;;;;;;;;;;;;;;;;;4946725;28;19925;-89
2022/06/23 14:06:18;;;;;;;;;;;;;;;;;;4949583;28;19911;-89
2022/06/23 14:08:44;;;;;;;;;;;;;;;;;;4964144;28;19936;-89
2022/06/23 14:11:10;;;;;;;;;;;;;;;;;;4956268;28;19918;-89
2022/06/23 14:13:36;;;;;;;;;;;;;;;;;;4951078;28;19910;-90
2022/06/23 14:16:02;;;;;;;;;;;;;;;;;;4953330;28;19909;-90
2022/06/23 14:18:28;;;;;;;;;;;;;;;;;;4946557;28;20382;-91
2022/06/23 14:20:54;;;;;;;;;;;;;;;;;;4948496;28;20377;-90
2022/06/23 14:23:20;;;;;;;;;;;;;;;;;;4942383;28;20013;-90
2022/06/23 14:25:46;;;;;;;;;;;;;;;;;;4968052;28;19940;-90
2022/06/23 14:28:12;;;;;;;;;;;;;;;;;;4943874;28;20273;-90
2022/06/23 14:30:38;;;;;;;;;;;;;;;;;;4948719;28;19918;-90
2022/06/23 14:33:04;;;;;;;;;;;;;;;;;;4945454;28;19917;-91
2022/06/23 14:35:29;;;;;;;;;;;;;;;;;;4947937;28;19922;-90
2022/06/23 14:37:58;;;;;;;;;;;;;;;;;;4948795;28;19968;-91
2022/06/23 14:40:24;;;;;;;;;;;;;;;;;;4949532;28;19917;-90
2022/06/23 14:42:50;;;;;;;;;;;;;;;;;;4966024;28;19921;-91
2022/06/23 14:45:16;;;;;;;;;;;;;;;;;;4976601;28;19914;-91
2022/06/23 14:47:42;;;;;;;;;;;;;;;;;;4963813;28;19975;-91
2022/06/23 14:50:08;;;;;;;;;;;;;;;;;;4980922;28;19910;-91
2022/06/23 14:52:34;;;;;;;;;;;;;;;;;;4968194;28;19910;-91
2022/06/23 14:55:00;;;;;;;;;;;;;;;;;;4978719;28;19960;-90
2022/06/23 14:57:26;;;;;;;;;;;;;;;;;;4962584;28;19918;-92
2022/06/23 14:59:51;;;;;;;;;;;;;;;;;;4962446;28;19913;-91
2022/06/23 15:02:17;;;;;;;;;;;;;;;;;;4965866;28;20292;-89
2022/06/23 15:04:43;;;;;;;;;;;;;;;;;;4974074;28;20339;-90
2022/06/23 15:07:09;;;;;;;;;;;;;;;;;;4978371;28;19917;-89
2022/06/23 15:09:35;;;;;;;;;;;;;;;;;;4976793;28;19913;-90
2022/06/23 15:12:01;;;;;;;;;;;;;;;;;;4964855;28;20364;-90
2022/06/23 15:14:27;;;;;;;;;;;;;;;;;;4966796;28;19920;-89
2022/06/23 15:16:53;;;;;;;;;;;;;;;;;;4963369;28;19924;-91
2022/06/23 15:19:19;;;;;;;;;;;;;;;;;;4985634;28;19913;-90
2022/06/23 15:24:30;;;;;;;;;;;;;;;;;;4979527;28;19957;-93
2022/06/23 15:26:56;;;;;;;;;;;;;;;;;;4961447;28;19918;-92
2022/06/23 15:29:22;;;;;;;;;;;;;;;;;;4970891;28;20037;-91
2022/06/23 15:31:48;;;;;;;;;;;;;;;;;;4979457;28;19910;-93
2022/06/23 15:34:14;;;;;;;;;;;;;;;;;;4980608;28;19918;-91
2022/06/23 15:36:39;;;;;;;;;;;;;;;;;;4980325;28;20025;-94
2022/06/23 15:39:12;;;;;;;;;;;;;;;;;;4963941;28;20613;-92
2022/06/23 15:41:38;;;;;;;;;;;;;;;;;;4969929;28;19980;-93
2022/06/23 15:44:04;;;;;;;;;;;;;;;;;;4982219;28;19910;-91
2022/06/23 15:46:31;;;;;;;;;;;;;;;;;;4965511;28;19912;-94
2022/06/23 15:48:57;;;;;;;;;;;;;;;;;;4967860;28;19920;-93
2022/06/23 15:51:23;;;;;;;;;;;;;;;;;;4963424;28;20302;-93
2022/06/23 15:53:49;;;;;;;;;;;;;;;;;;4964010;28;19918;-93
2022/06/23 15:56:15;;;;;;;;;;;;;;;;;;4970978;28;19918;-94
2022/06/23 15:58:41;;;;;;;;;;;;;;;;;;4982331;28;19920;-94
2022/06/23 16:01:07;;;;;;;;;;;;;;;;;;4969628;28;19960;-92
2022/06/23 16:03:33;;;;;;;;;;;;;;;;;;4963166;28;20320;-94
2022/06/23 16:05:59;;;;;;;;;;;;;;;;;;4967719;28;19925;-94
2022/06/23 16:08:25;;;;;;;;;;;;;;;;;;4967665;28;19910;-94
2022/06/23 16:10:50;;;;;;;;;;;;;;;;;;4960171;28;19913;-93
2022/06/23 16:13:16;;;;;;;;;;;;;;;;;;4967563;28;19909;-92
2022/06/23 16:15:42;;;;;;;;;;;;;;;;;;4966080;28;19914;-92
2022/06/23 16:18:08;;;;;;;;;;;;;;;;;;4966450;28;20419;-94
2022/06/23 16:20:34;;;;;;;;;;;;;;;;;;4964975;28;19953;-94
2022/06/23 16:23:00;;;;;;;;;;;;;;;;;;4981214;28;19964;-93
2022/06/23 16:25:26;;;;;;;;;;;;;;;;;;4962328;28;19914;-93
2022/06/23 16:27:52;;;;;;;;;;;;;;;;;;4968697;28;19909;-92
2022/06/23 16:30:18;;;;;;;;;;;;;;;;;;4967943;28;20042;-93
2022/06/23 16:32:44;;;;;;;;;;;;;;;;;;4965903;28;19997;-94
2022/06/23 16:35:10;;;;;;;;;;;;;;;;;;4968429;28;20341;-93
2022/06/23 16:37:36;;;;;;;;;;;;;;;;;;4962927;28;19921;-93
2022/06/23 16:40:02;;;;;;;;;;;;;;;;;;4958850;28;19918;-94
2022/06/23 16:42:28;;;;;;;;;;;;;;;;;;4977278;28;19924;-93
2022/06/23 16:44:54;;;;;;;;;;;;;;;;;;4979512;28;19953;-94
2022/06/23 16:47:21;;;;;;;;;;;;;;;;;;4985736;28;20312;-94
2022/06/23 16:49:47;;;;;;;;;;;;;;;;;;4980693;28;19914;-93